Terminal Aerodrome Forecast
Issued by NWS Paducah, KY

Home | Current Version | Previous Version | Text Only | Print | Product List | Glossary On
Versions: 1 2 3 4 5 6 7 8 9 10 11 12 13 14 15 16 17 18 19 20 21 22
000
FTUS43 KPAH 021721
TAFEVV
TAF
KEVV 021721Z 0218/0318 03005KT P6SM OVC020
     FM022100 04006KT P6SM FEW035
     FM030000 03003KT P6SM SKC
      TEMPO 0309/0313 4SM BR=

USA.gov is the U.S. government's official web portal to all federal, state and local government web resources and services.